createdAt,value
2022-09-13T00:01:05.113Z,12.60
2022-09-13T00:03:34.607Z,12.60
2022-09-13T00:06:10.003Z,12.60
2022-09-13T00:08:40.557Z,12.50
2022-09-13T00:11:15.737Z,12.50
2022-09-13T00:13:45.027Z,12.50
2022-09-13T00:16:16.101Z,12.40
2022-09-13T00:18:45.957Z,12.40
2022-09-13T00:21:18.030Z,12.40
2022-09-13T00:23:50.672Z,12.50
2022-09-13T00:26:21.791Z,12.40
2022-09-13T00:28:53.298Z,12.40
2022-09-13T00:31:25.198Z,12.30
2022-09-13T00:33:55.180Z,12.30
2022-09-13T00:36:24.832Z,12.30
2022-09-13T00:38:55.999Z,12.30
2022-09-13T00:41:25.592Z,12.20
2022-09-13T00:43:57.595Z,12.20
2022-09-13T00:46:34.586Z,12.20
2022-09-13T00:49:10.392Z,12.30
2022-09-13T00:51:40.706Z,12.20
2022-09-13T00:54:13.188Z,12.20
2022-09-13T00:56:47.539Z,12.20
2022-09-13T00:59:22.711Z,12.20
2022-09-13T01:01:56.661Z,12.20
2022-09-13T01:04:29.268Z,12.10
2022-09-13T01:07:04.226Z,12.20
2022-09-13T01:09:38.546Z,12.10
2022-09-13T01:12:15.134Z,12.10
2022-09-13T01:14:47.592Z,12.10
2022-09-13T01:17:17.329Z,12.10
2022-09-13T01:19:47.233Z,12.10
2022-09-13T01:22:45.581Z,12.00
2022-09-13T01:25:41.168Z,12.10
2022-09-13T01:28:49.661Z,12.00
2022-09-13T01:31:27.141Z,12.00
2022-09-13T01:34:08.817Z,12.00
2022-09-13T01:36:52.101Z,12.00
2022-09-13T01:39:35.141Z,12.00
2022-09-13T01:42:16.821Z,11.90
2022-09-13T01:45:01.741Z,12.00
2022-09-13T01:47:37.800Z,11.90
2022-09-13T01:50:19.252Z,11.90
2022-09-13T01:52:55.812Z,11.90
2022-09-13T01:55:34.847Z,11.90
2022-09-13T01:58:15.839Z,11.90
2022-09-13T02:00:51.648Z,11.80
2022-09-13T02:03:30.006Z,11.90
2022-09-13T02:06:03.731Z,11.80
2022-09-13T02:08:39.679Z,11.80
2022-09-13T02:11:12.679Z,11.90
2022-09-13T02:13:48.232Z,11.80
2022-09-13T02:16:24.358Z,11.80
2022-09-13T02:19:01.066Z,11.70
2022-09-13T02:21:34.846Z,11.80
2022-09-13T02:24:08.728Z,11.70
2022-09-13T02:26:42.519Z,11.60
2022-09-13T02:29:17.438Z,11.60
2022-09-13T02:31:50.935Z,11.60
2022-09-13T02:34:25.680Z,11.50
2022-09-13T02:36:58.686Z,11.50
2022-09-13T02:39:30.959Z,11.50
2022-09-13T02:42:12.342Z,11.40
2022-09-13T02:44:45.406Z,11.40
2022-09-13T02:47:24.806Z,11.40
2022-09-13T02:50:02.608Z,11.30
2022-09-13T02:52:44.567Z,11.30
2022-09-13T02:55:23.809Z,11.20
2022-09-13T02:58:01.959Z,11.10
2022-09-13T03:00:32.042Z,11.00
2022-09-13T03:03:05.874Z,10.90
2022-09-13T03:05:37.003Z,10.80
2022-09-13T03:08:07.634Z,10.80
2022-09-13T03:10:46.364Z,10.70
2022-09-13T03:13:39.213Z,10.60
2022-09-13T03:16:21.522Z,10.60
2022-09-13T03:19:01.653Z,10.60
2022-09-13T03:21:51.043Z,10.60
2022-09-13T03:24:25.883Z,10.60
2022-09-13T03:27:08.092Z,10.50
2022-09-13T03:29:45.453Z,10.40
2022-09-13T03:32:27.839Z,10.40
2022-09-13T03:35:06.166Z,10.40
2022-09-13T03:37:45.681Z,10.40
2022-09-13T03:40:17.610Z,10.30
2022-09-13T03:42:52.600Z,10.20
2022-09-13T03:45:29.315Z,10.10
2022-09-13T03:48:01.964Z,10.00
2022-09-13T03:50:32.038Z,10.00
2022-09-13T03:53:06.682Z,9.90
2022-09-13T03:55:40.554Z,9.90
2022-09-13T03:58:13.036Z,9.90
2022-09-13T04:00:43.116Z,10.00
2022-09-13T04:03:13.162Z,10.00
2022-09-13T04:05:42.999Z,9.90
2022-09-13T04:08:14.235Z,9.90
2022-09-13T04:10:43.492Z,9.80
2022-09-13T04:13:13.005Z,9.70
2022-09-13T04:15:42.513Z,9.70
2022-09-13T04:18:12.712Z,9.70
2022-09-13T04:20:42.169Z,9.70
2022-09-13T04:23:13.088Z,9.70
2022-09-13T04:25:42.443Z,9.80
2022-09-13T04:28:11.903Z,9.70
2022-09-13T04:30:42.797Z,9.70
2022-09-13T04:33:12.324Z,9.80
2022-09-13T04:35:41.823Z,10.00
2022-09-13T04:38:12.809Z,10.10
2022-09-13T04:40:42.283Z,10.20
2022-09-13T04:43:11.703Z,10.30
2022-09-13T04:45:41.193Z,10.30
2022-09-13T04:48:11.452Z,10.30
2022-09-13T04:50:40.988Z,10.50
2022-09-13T04:53:12.809Z,10.50
2022-09-13T04:55:42.787Z,10.90
2022-09-13T04:58:13.168Z,12.20
2022-09-13T05:00:43.535Z,13.60
2022-09-13T05:03:14.046Z,15.20
2022-09-13T05:05:44.360Z,16.40
2022-09-13T05:08:16.689Z,17.50
2022-09-13T05:10:49.429Z,18.40
2022-09-13T05:13:19.959Z,19.40
2022-09-13T05:15:50.161Z,20.50
2022-09-13T05:18:20.389Z,21.20
2022-09-13T05:20:50.710Z,21.90
2022-09-13T05:23:22.710Z,21.90
2022-09-13T05:25:55.991Z,22.40
2022-09-13T05:28:27.109Z,22.60
2022-09-13T05:30:58.600Z,22.60
2022-09-13T05:33:29.821Z,23.30
2022-09-13T05:36:00.079Z,24.30
2022-09-13T05:38:31.830Z,24.90
2022-09-13T05:41:03.835Z,25.80
2022-09-13T05:43:35.755Z,26.60
2022-09-13T05:46:07.950Z,27.20
2022-09-13T05:48:38.864Z,27.70
2022-09-13T05:51:11.118Z,27.50
2022-09-13T05:53:44.951Z,28.80
2022-09-13T05:56:17.199Z,29.90
2022-09-13T05:58:49.364Z,29.70
2022-09-13T06:01:21.631Z,29.70
2022-09-13T06:03:52.006Z,28.30
2022-09-13T06:06:23.435Z,26.50
2022-09-13T06:08:57.035Z,26.00
2022-09-13T06:11:28.313Z,26.40
2022-09-13T06:13:58.475Z,26.40
2022-09-13T06:16:32.423Z,27.40
2022-09-13T06:19:02.728Z,27.90
2022-09-13T06:21:33.191Z,28.10
2022-09-13T06:24:05.739Z,27.80
2022-09-13T06:26:36.023Z,28.40
2022-09-13T06:29:06.142Z,29.40
2022-09-13T06:31:35.889Z,30.10
2022-09-13T06:34:05.966Z,29.40
2022-09-13T06:36:35.846Z,28.80
2022-09-13T06:39:08.455Z,28.50
2022-09-13T06:41:38.295Z,28.40
2022-09-13T06:44:08.085Z,28.00
2022-09-13T06:46:38.681Z,28.10
2022-09-13T06:49:09.858Z,27.40
2022-09-13T06:51:39.564Z,27.20
2022-09-13T06:54:11.285Z,26.40
2022-09-13T06:56:41.431Z,26.50
2022-09-13T06:59:12.430Z,26.60
2022-09-13T07:01:43.865Z,26.00
2022-09-13T07:04:15.030Z,24.70
2022-09-13T07:06:47.548Z,23.80
2022-09-13T07:09:21.810Z,23.50
2022-09-13T07:11:53.510Z,23.10
2022-09-13T07:14:25.090Z,23.30
2022-09-13T07:16:55.564Z,23.50
2022-09-13T07:19:26.990Z,23.90
2022-09-13T07:21:58.844Z,23.80
2022-09-13T07:24:30.281Z,23.30
2022-09-13T07:27:00.630Z,23.10
2022-09-13T07:29:30.360Z,22.90
2022-09-13T07:31:59.918Z,22.80
2022-09-13T07:34:29.869Z,22.90
2022-09-13T07:37:22.509Z,22.90
2022-09-13T07:39:53.669Z,23.20
2022-09-13T07:42:23.398Z,22.90
2022-09-13T07:44:52.892Z,22.60
2022-09-13T07:47:22.686Z,22.10
2022-09-13T07:49:52.071Z,21.90
2022-09-13T07:52:21.790Z,21.50
2022-09-13T07:54:53.168Z,21.20
2022-09-13T07:57:22.683Z,21.20
2022-09-13T07:59:52.527Z,21.30
2022-09-13T08:02:22.898Z,21.90
2022-09-13T08:04:52.839Z,22.40
2022-09-13T08:07:22.565Z,21.90
2022-09-13T08:09:56.669Z,22.40
2022-09-13T08:12:26.400Z,22.60
2022-09-13T08:14:56.444Z,22.80
2022-09-13T08:17:26.579Z,22.60
2022-09-13T08:19:56.518Z,22.80
2022-09-13T08:22:26.269Z,22.40
2022-09-13T08:24:57.989Z,22.50
2022-09-13T08:27:27.759Z,22.80
2022-09-13T08:29:57.509Z,22.90
2022-09-13T08:32:27.309Z,22.90
2022-09-13T08:34:57.558Z,22.60
2022-09-13T08:37:27.319Z,22.60
2022-09-13T08:39:58.554Z,22.60
2022-09-13T08:42:49.318Z,23.10
2022-09-13T08:45:19.320Z,22.90
2022-09-13T08:47:55.279Z,23.00
2022-09-13T08:50:29.550Z,23.50
2022-09-13T08:53:21.597Z,23.80
2022-09-13T08:55:59.789Z,24.30
2022-09-13T08:58:46.838Z,23.60
2022-09-13T09:01:25.305Z,23.40
2022-09-13T09:04:00.712Z,23.60
2022-09-13T09:06:30.841Z,23.80
2022-09-13T09:09:04.638Z,23.60
2022-09-13T09:11:40.429Z,23.00
2022-09-13T09:14:17.239Z,22.50
2022-09-13T09:16:53.079Z,22.60
2022-09-13T09:19:24.789Z,22.70
2022-09-13T09:21:54.558Z,23.10
2022-09-13T09:24:26.357Z,23.40
2022-09-13T09:26:59.559Z,23.70
2022-09-13T09:29:33.118Z,23.80
2022-09-13T09:32:17.278Z,23.70
2022-09-13T09:34:56.949Z,23.90
2022-09-13T09:37:27.642Z,24.00
2022-09-13T09:40:02.454Z,24.10
2022-09-13T09:42:42.390Z,24.10
2022-09-13T09:45:27.479Z,24.10
2022-09-13T09:48:02.040Z,24.10
2022-09-13T09:50:35.509Z,24.10
2022-09-13T09:53:10.250Z,24.20
2022-09-13T09:55:47.399Z,24.30
2022-09-13T09:58:19.351Z,24.40
2022-09-13T10:00:57.320Z,24.40
2022-09-13T10:03:29.608Z,24.50
2022-09-13T10:06:08.829Z,24.50
2022-09-13T10:08:40.589Z,24.50
2022-09-13T10:11:11.444Z,24.60
2022-09-13T10:14:00.551Z,24.80
2022-09-13T10:16:31.798Z,24.90
2022-09-13T10:19:27.164Z,25.00
2022-09-13T10:22:06.083Z,25.20
2022-09-13T10:24:35.799Z,25.20
2022-09-13T10:27:06.558Z,25.00
2022-09-13T10:29:38.685Z,24.80
2022-09-13T10:32:13.358Z,24.60
2022-09-13T10:34:47.269Z,24.40
2022-09-13T10:37:21.784Z,24.30
2022-09-13T10:39:57.884Z,24.20
2022-09-13T10:42:30.296Z,24.10
2022-09-13T10:45:03.389Z,23.90
2022-09-13T10:47:36.731Z,23.90
2022-09-13T10:50:21.761Z,23.90
2022-09-13T10:52:52.709Z,23.90
2022-09-13T10:55:37.478Z,23.80
2022-09-13T10:58:21.414Z,23.80
2022-09-13T11:01:29.477Z,23.90
2022-09-13T11:04:38.444Z,23.90
2022-09-13T11:07:29.519Z,24.00
2022-09-13T11:10:06.679Z,24.10
2022-09-13T11:12:44.842Z,24.00
2022-09-13T11:15:26.961Z,23.70
2022-09-13T11:18:18.431Z,23.70
2022-09-13T11:20:59.838Z,23.70
2022-09-13T11:23:55.350Z,23.70
2022-09-13T11:26:53.166Z,23.70
2022-09-13T11:29:39.319Z,23.70
2022-09-13T11:32:24.714Z,23.80
2022-09-13T11:35:14.118Z,23.80
2022-09-13T11:37:54.949Z,23.80
2022-09-13T11:40:50.682Z,23.70
2022-09-13T11:43:41.322Z,23.50
2022-09-13T11:46:21.829Z,23.30
2022-09-13T11:49:29.559Z,23.30
2022-09-13T11:52:09.878Z,23.20
2022-09-13T11:54:54.079Z,23.20
2022-09-13T11:57:28.789Z,23.10
2022-09-13T12:00:02.558Z,23.00
2022-09-13T12:02:42.260Z,22.80
2022-09-13T12:05:22.623Z,22.70
2022-09-13T12:07:56.951Z,22.70
2022-09-13T12:10:31.789Z,22.90
2022-09-13T12:13:04.311Z,22.90
2022-09-13T12:15:39.069Z,22.90
2022-09-13T12:18:15.351Z,22.90
2022-09-13T12:20:50.273Z,23.00
2022-09-13T12:23:26.816Z,22.90
2022-09-13T12:26:03.869Z,22.70
2022-09-13T12:28:39.078Z,22.60
2022-09-13T12:31:16.856Z,22.50
2022-09-13T12:33:47.951Z,22.50
2022-09-13T12:36:45.205Z,22.30
2022-09-13T12:39:29.679Z,22.30
2022-09-13T12:42:28.164Z,22.30
2022-09-13T12:45:12.591Z,22.30
2022-09-13T12:48:10.950Z,22.10
2022-09-13T12:51:03.842Z,22.00
2022-09-13T12:54:11.405Z,21.90
2022-09-13T12:57:11.810Z,21.80
2022-09-13T13:00:04.635Z,21.60
2022-09-13T13:02:38.005Z,21.60
2022-09-13T13:05:19.674Z,21.50
2022-09-13T13:07:55.282Z,21.50
2022-09-13T13:10:32.514Z,21.50
2022-09-13T13:13:20.845Z,21.50
2022-09-13T13:16:03.246Z,21.50
2022-09-13T13:18:44.883Z,21.40
2022-09-13T13:21:37.765Z,21.40
2022-09-13T13:24:47.485Z,21.20
2022-09-13T13:27:47.628Z,21.20
2022-09-13T13:30:44.610Z,21.10
2022-09-13T13:33:21.197Z,20.90
2022-09-13T13:35:52.903Z,20.90
2022-09-13T13:38:43.493Z,20.80
2022-09-13T13:41:45.352Z,20.80
2022-09-13T13:44:54.560Z,20.80
2022-09-13T13:47:54.558Z,20.90
2022-09-13T13:50:24.850Z,20.80
2022-09-13T13:53:03.610Z,20.80
2022-09-13T13:55:42.969Z,20.70
2022-09-13T13:58:33.288Z,20.80
2022-09-13T14:01:04.744Z,20.70
2022-09-13T14:03:51.773Z,20.60
2022-09-13T14:06:30.479Z,20.70
2022-09-13T14:09:32.940Z,20.80
2022-09-13T14:12:19.294Z,20.80
2022-09-13T14:15:08.945Z,20.80
2022-09-13T14:18:02.569Z,20.70
2022-09-13T14:20:33.523Z,20.70
2022-09-13T14:23:20.125Z,20.70
2022-09-13T14:25:56.645Z,20.70
2022-09-13T14:28:26.882Z,20.80
2022-09-13T14:30:58.842Z,20.80
2022-09-13T14:33:32.648Z,20.70
2022-09-13T14:36:06.846Z,20.70
2022-09-13T14:38:37.953Z,20.90
2022-09-13T14:41:19.249Z,20.90
2022-09-13T14:43:50.174Z,20.80
2022-09-13T14:46:26.304Z,20.80
2022-09-13T14:48:59.536Z,20.80
2022-09-13T14:51:35.534Z,20.80
2022-09-13T14:54:13.535Z,20.80
2022-09-13T14:56:47.775Z,20.80
2022-09-13T14:59:26.496Z,20.80
2022-09-13T15:02:02.705Z,20.70
2022-09-13T15:04:33.456Z,20.70
2022-09-13T15:07:20.574Z,20.70
2022-09-13T15:09:51.775Z,20.70
2022-09-13T15:12:27.614Z,20.70
2022-09-13T15:15:34.734Z,20.70
2022-09-13T15:18:06.435Z,20.60
2022-09-13T15:20:51.650Z,20.60
2022-09-13T15:23:26.095Z,20.50
2022-09-13T15:25:58.636Z,20.50
2022-09-13T15:28:31.114Z,20.50
2022-09-13T15:31:04.576Z,20.40
2022-09-13T15:33:36.085Z,20.30
2022-09-13T15:36:18.076Z,20.30
2022-09-13T15:39:17.451Z,20.30
2022-09-13T15:41:55.673Z,20.20
2022-09-13T15:44:26.714Z,20.20
2022-09-13T15:46:58.585Z,20.10
2022-09-13T15:49:30.285Z,20.10
2022-09-13T15:52:01.169Z,20.10
2022-09-13T15:54:35.044Z,20.10
2022-09-13T15:57:07.845Z,20.00
2022-09-13T15:59:37.645Z,20.00
2022-09-13T16:02:19.905Z,19.90
2022-09-13T16:04:49.892Z,19.90
2022-09-13T16:07:20.795Z,19.90
2022-09-13T16:09:52.046Z,19.90
2022-09-13T16:12:24.839Z,19.90
2022-09-13T16:14:55.236Z,19.80
2022-09-13T16:17:27.408Z,19.80
2022-09-13T16:19:57.715Z,19.80
2022-09-13T16:22:27.965Z,19.80
2022-09-13T16:24:59.247Z,19.70
2022-09-13T16:27:33.308Z,19.80
2022-09-13T16:30:03.769Z,19.70
2022-09-13T16:32:33.316Z,19.60
2022-09-13T16:35:03.084Z,19.60
2022-09-13T16:37:32.754Z,19.50
2022-09-13T16:40:04.964Z,19.50
2022-09-13T16:42:36.375Z,19.40
2022-09-13T16:45:07.503Z,19.50
2022-09-13T16:47:37.575Z,19.40
2022-09-13T16:50:09.494Z,19.40
2022-09-13T16:52:39.723Z,19.40
2022-09-13T16:55:11.395Z,19.30
2022-09-13T16:57:41.330Z,19.30
2022-09-13T17:00:13.203Z,19.20
2022-09-13T17:02:43.294Z,19.20
2022-09-13T17:05:13.219Z,19.10
2022-09-13T17:07:43.052Z,19.00
2022-09-13T17:10:14.984Z,19.00
2022-09-13T17:12:45.052Z,18.90
2022-09-13T17:15:15.141Z,19.00
2022-09-13T17:17:45.300Z,19.00
2022-09-13T17:20:17.461Z,19.00
2022-09-13T17:22:47.620Z,19.10
2022-09-13T17:25:21.452Z,19.00
2022-09-13T17:27:52.031Z,19.00
2022-09-13T17:30:22.264Z,19.00
2022-09-13T17:32:59.614Z,19.00
2022-09-13T17:35:36.342Z,18.90
2022-09-13T17:38:10.102Z,18.90
2022-09-13T17:40:43.785Z,18.90
2022-09-13T17:43:15.302Z,18.90
2022-09-13T17:45:46.759Z,18.90
2022-09-13T17:48:20.506Z,18.80
2022-09-13T17:50:51.223Z,18.90
2022-09-13T17:53:21.624Z,18.80
2022-09-13T17:55:55.465Z,18.90
2022-09-13T17:58:28.905Z,18.90
2022-09-13T18:01:06.455Z,18.80
2022-09-13T18:03:37.692Z,18.70
2022-09-13T18:06:12.892Z,18.70
2022-09-13T18:08:46.972Z,18.70
2022-09-13T18:11:22.653Z,18.70
2022-09-13T18:13:58.179Z,18.70
2022-09-13T18:16:31.903Z,18.70
2022-09-13T18:19:07.544Z,18.70
2022-09-13T18:21:39.132Z,18.70
2022-09-13T18:24:11.695Z,18.70
2022-09-13T18:26:47.054Z,18.70
2022-09-13T18:29:25.302Z,18.60
2022-09-13T18:31:56.370Z,18.70
2022-09-13T18:34:28.016Z,18.60
2022-09-13T18:37:02.416Z,18.60
2022-09-13T18:39:33.791Z,18.60
2022-09-13T18:42:08.772Z,18.60
2022-09-13T18:44:39.612Z,18.60
2022-09-13T18:47:13.933Z,18.50
2022-09-13T18:49:44.373Z,18.60
2022-09-13T18:52:15.299Z,18.60
2022-09-13T18:54:45.622Z,18.50
2022-09-13T18:57:18.092Z,18.60
2022-09-13T18:59:48.432Z,18.50
2022-09-13T19:02:19.104Z,18.50
2022-09-13T19:04:51.134Z,18.60
2022-09-13T19:07:23.222Z,18.50
2022-09-13T19:09:53.942Z,18.50
2022-09-13T19:12:26.821Z,18.40
2022-09-13T19:14:59.128Z,18.40
2022-09-13T19:17:30.012Z,18.50
2022-09-13T19:20:01.140Z,18.50
2022-09-13T19:22:31.940Z,18.40
2022-09-13T19:25:03.613Z,18.40
2022-09-13T19:27:36.813Z,18.40
2022-09-13T19:30:08.492Z,18.50
2022-09-13T19:32:39.135Z,18.50
2022-09-13T19:35:12.022Z,18.40
2022-09-13T19:37:43.213Z,18.40
2022-09-13T19:40:14.224Z,18.40
2022-09-13T19:42:46.660Z,18.40
2022-09-13T19:45:17.542Z,18.30
2022-09-13T19:50:40.412Z,18.40
2022-09-13T19:53:11.061Z,18.30
2022-09-13T19:55:47.621Z,18.30
2022-09-13T19:58:21.541Z,18.40
2022-09-13T20:00:52.108Z,18.40
2022-09-13T20:03:23.709Z,18.20
2022-09-13T20:05:54.428Z,18.20
2022-09-13T20:08:26.252Z,18.20
2022-09-13T20:10:58.093Z,18.10
2022-09-13T20:13:30.264Z,18.10
2022-09-13T20:16:01.353Z,18.20
2022-09-13T20:18:34.900Z,18.20
2022-09-13T20:21:06.820Z,18.20
2022-09-13T20:23:39.292Z,18.10
2022-09-13T20:26:16.812Z,18.10
2022-09-13T20:28:51.213Z,18.10
2022-09-13T20:31:23.333Z,18.10
2022-09-13T20:33:58.252Z,18.20
2022-09-13T20:36:32.900Z,18.10
2022-09-13T20:39:04.419Z,18.20
2022-09-13T20:41:35.539Z,18.10
2022-09-13T20:44:08.972Z,18.10
2022-09-13T20:46:41.132Z,18.10
2022-09-13T20:49:13.057Z,18.10
2022-09-13T20:51:44.502Z,18.10
2022-09-13T20:54:16.502Z,18.10
2022-09-13T20:56:47.691Z,18.10
2022-09-13T20:59:19.302Z,18.10
2022-09-13T21:01:49.470Z,18.10
2022-09-13T21:04:20.342Z,18.00
2022-09-13T21:07:10.960Z,18.00
2022-09-13T21:09:43.940Z,18.00
2022-09-13T21:12:16.260Z,18.00
2022-09-13T21:14:48.332Z,18.00
2022-09-13T21:17:18.652Z,18.00
2022-09-13T21:19:48.982Z,17.90
2022-09-13T21:22:18.981Z,18.00
2022-09-13T21:24:49.140Z,17.90
2022-09-13T21:27:19.284Z,18.00
2022-09-13T21:29:51.214Z,18.00
2022-09-13T21:32:21.612Z,18.00
2022-09-13T21:34:51.700Z,17.90
2022-09-13T21:37:21.619Z,17.80
2022-09-13T21:39:51.955Z,17.80
2022-09-13T21:42:22.332Z,17.70
2022-09-13T21:44:54.181Z,17.70
2022-09-13T21:47:24.252Z,17.60
2022-09-13T21:49:54.180Z,17.70
2022-09-13T21:52:24.260Z,17.70
2022-09-13T21:54:54.412Z,17.70
2022-09-13T21:57:24.500Z,17.60
2022-09-13T21:59:56.100Z,17.60
2022-09-13T22:02:26.402Z,17.50
2022-09-13T22:04:56.652Z,17.50
2022-09-13T22:07:26.656Z,17.50
2022-09-13T22:09:56.736Z,17.40
2022-09-13T22:12:26.819Z,17.30
2022-09-13T22:14:58.496Z,17.30
2022-09-13T22:17:28.577Z,17.30
2022-09-13T22:19:58.976Z,17.30
2022-09-13T22:22:29.609Z,17.30
2022-09-13T22:24:59.619Z,17.20
2022-09-13T22:27:29.937Z,17.20
2022-09-13T22:30:01.556Z,17.30
2022-09-13T22:32:31.532Z,17.30
2022-09-13T22:35:01.481Z,17.40
2022-09-13T22:37:31.370Z,17.30
2022-09-13T22:40:00.990Z,17.30
2022-09-13T22:42:30.761Z,17.20
2022-09-13T22:45:01.761Z,17.30
2022-09-13T22:47:31.282Z,17.20
2022-09-13T22:50:00.848Z,17.30
2022-09-13T22:52:30.654Z,17.30
2022-09-13T22:55:00.413Z,17.40
2022-09-13T22:57:29.926Z,17.30
2022-09-13T23:00:00.933Z,17.30
2022-09-13T23:02:30.494Z,17.30
2022-09-13T23:05:00.255Z,17.30
2022-09-13T23:07:29.847Z,17.30
2022-09-13T23:09:59.487Z,17.20
2022-09-13T23:12:31.374Z,17.20
2022-09-13T23:15:02.326Z,17.10
2022-09-13T23:17:32.087Z,17.20
2022-09-13T23:20:01.687Z,17.10
2022-09-13T23:22:31.215Z,17.10
2022-09-13T23:25:00.735Z,17.10
2022-09-13T23:27:31.496Z,17.10
2022-09-13T23:30:02.704Z,17.10
2022-09-13T23:32:32.224Z,17.10
2022-09-13T23:35:01.866Z,17.00
2022-09-13T23:37:31.617Z,17.10
2022-09-13T23:40:01.872Z,17.00
2022-09-13T23:42:32.071Z,17.00
2022-09-13T23:45:03.258Z,17.00
2022-09-13T23:47:33.075Z,17.00
2022-09-13T23:50:02.577Z,17.00
2022-09-13T23:52:32.130Z,17.00
2022-09-13T23:55:02.108Z,17.00
2022-09-13T23:57:31.701Z,17.10
